createdAt,value
2022-08-18T00:01:07.012Z,1.30
2022-08-18T00:04:15.363Z,1.60
2022-08-18T00:07:34.547Z,1.42
2022-08-18T00:10:36.926Z,1.25
2022-08-18T00:13:39.160Z,1.23
2022-08-18T00:16:41.357Z,1.20
2022-08-18T00:19:47.733Z,1.30
2022-08-18T00:22:52.426Z,1.10
2022-08-18T00:25:55.758Z,1.35
2022-08-18T00:28:57.973Z,1.40
2022-08-18T00:32:00.209Z,1.20
2022-08-18T00:35:30.553Z,1.50
2022-08-18T00:38:32.765Z,1.50
2022-08-18T00:41:35.147Z,1.20
2022-08-18T00:44:37.340Z,1.10
2022-08-18T00:47:43.064Z,1.75
2022-08-18T00:50:58.259Z,1.40
2022-08-18T00:54:28.724Z,1.30
2022-08-18T00:57:32.569Z,2.05
2022-08-18T01:00:36.381Z,1.33
2022-08-18T01:03:42.112Z,1.65
2022-08-18T01:06:55.583Z,1.73
2022-08-18T01:10:00.007Z,1.20
2022-08-18T01:13:02.273Z,1.25
2022-08-18T01:16:25.264Z,1.38
2022-08-18T01:19:46.984Z,1.40
2022-08-18T01:22:55.224Z,1.38
2022-08-18T01:26:00.149Z,1.50
2022-08-18T01:29:11.879Z,1.27
2022-08-18T01:32:23.569Z,1.65
2022-08-18T01:35:27.433Z,1.50
2022-08-18T01:38:34.093Z,1.65
2022-08-18T01:41:36.433Z,1.42
2022-08-18T01:44:42.751Z,1.70
2022-08-18T01:47:47.968Z,1.40
2022-08-18T01:50:50.707Z,1.60
2022-08-18T01:53:52.963Z,1.60
2022-08-18T01:56:55.207Z,1.50
2022-08-18T02:00:01.138Z,1.63
2022-08-18T02:03:07.458Z,1.75
2022-08-18T02:06:14.632Z,1.85
2022-08-18T02:09:23.831Z,1.60
2022-08-18T02:12:27.203Z,1.55
2022-08-18T02:15:29.555Z,1.45
2022-08-18T02:18:47.372Z,1.60
2022-08-18T02:21:52.987Z,1.57
2022-08-18T02:24:57.996Z,1.70
2022-08-18T02:28:00.195Z,1.70
2022-08-18T02:31:11.539Z,1.60
2022-08-18T02:34:14.978Z,1.85
2022-08-18T02:37:17.245Z,1.70
2022-08-18T02:40:19.731Z,1.60
2022-08-18T02:43:22.274Z,1.60
2022-08-18T02:46:29.862Z,1.75
2022-08-18T02:49:33.173Z,2.17
2022-08-18T02:52:36.196Z,2.13
2022-08-18T02:55:39.597Z,2.00
2022-08-18T02:58:42.874Z,2.00
2022-08-18T03:01:48.291Z,2.63
2022-08-18T03:04:51.460Z,2.00
2022-08-18T03:07:54.103Z,2.00
2022-08-18T03:10:56.560Z,1.98
2022-08-18T03:14:00.442Z,1.98
2022-08-18T03:17:06.148Z,2.35
2022-08-18T03:20:08.876Z,2.58
2022-08-18T03:23:11.746Z,2.10
2022-08-18T03:26:17.843Z,2.40
2022-08-18T03:29:21.131Z,2.20
2022-08-18T03:32:23.351Z,2.22
2022-08-18T03:35:25.934Z,1.88
2022-08-18T03:38:29.214Z,2.33
2022-08-18T03:41:43.794Z,1.65
2022-08-18T03:44:54.829Z,2.20
2022-08-18T03:47:57.169Z,1.92
2022-08-18T03:51:06.973Z,2.47
2022-08-18T03:57:13.177Z,2.28
2022-08-18T04:00:15.559Z,2.10
2022-08-18T04:03:18.176Z,1.92
2022-08-18T04:06:35.506Z,2.40
2022-08-18T04:09:39.079Z,1.83
2022-08-18T04:12:42.984Z,2.30
2022-08-18T04:15:45.178Z,1.92
2022-08-18T04:18:47.403Z,2.00
2022-08-18T04:21:53.734Z,2.22
2022-08-18T04:24:56.035Z,1.80
2022-08-18T04:28:01.659Z,1.95
2022-08-18T04:31:12.306Z,2.00
2022-08-18T04:34:15.705Z,1.73
2022-08-18T04:37:18.641Z,2.13
2022-08-18T04:40:24.947Z,1.60
2022-08-18T04:43:27.466Z,1.92
2022-08-18T04:46:31.111Z,1.40
2022-08-18T04:49:34.121Z,1.40
2022-08-18T04:52:54.835Z,1.40
2022-08-18T04:55:57.023Z,1.52
2022-08-18T04:59:11.028Z,1.55
2022-08-18T05:02:15.052Z,1.40
2022-08-18T05:05:18.997Z,1.50
2022-08-18T05:08:22.452Z,1.50
2022-08-18T05:11:28.699Z,1.60
2022-08-18T05:14:31.606Z,1.48
2022-08-18T05:17:37.636Z,1.40
2022-08-18T05:20:43.835Z,1.10
2022-08-18T05:23:50.039Z,1.17
2022-08-18T05:26:53.666Z,1.10
2022-08-18T05:29:55.896Z,1.30
2022-08-18T05:33:01.430Z,1.40
2022-08-18T05:36:06.408Z,1.35
2022-08-18T05:39:23.998Z,1.60
2022-08-18T05:42:28.974Z,1.30
2022-08-18T05:45:31.457Z,1.50
2022-08-18T05:48:34.427Z,1.58
2022-08-18T05:51:45.006Z,1.25
2022-08-18T05:55:11.978Z,1.40
2022-08-18T05:58:33.139Z,1.27
2022-08-18T06:01:42.520Z,0.93
2022-08-18T06:05:00.197Z,1.30
2022-08-18T06:08:14.413Z,1.40
2022-08-18T06:11:17.378Z,1.10
2022-08-18T06:14:25.111Z,1.10
2022-08-18T06:17:54.819Z,1.20
2022-08-18T06:24:27.842Z,1.10
2022-08-18T06:27:45.437Z,1.30
2022-08-18T06:31:12.929Z,1.00
2022-08-18T06:34:42.472Z,1.20
2022-08-18T06:38:22.900Z,1.15
2022-08-18T06:41:43.917Z,1.40
2022-08-18T06:45:05.416Z,1.10
2022-08-18T06:51:26.921Z,0.88
2022-08-18T06:54:30.973Z,1.20
2022-08-18T06:57:40.632Z,1.30
2022-08-18T07:00:54.954Z,1.40
2022-08-18T07:03:59.708Z,1.25
2022-08-18T07:07:15.127Z,1.50
2022-08-18T07:10:17.300Z,1.17
2022-08-18T07:13:26.457Z,1.40
2022-08-18T07:16:57.292Z,1.20
2022-08-18T07:20:17.572Z,1.40
2022-08-18T07:23:27.665Z,1.65
2022-08-18T07:26:31.206Z,1.95
2022-08-18T07:29:37.411Z,1.60
2022-08-18T07:32:45.872Z,1.38
2022-08-18T07:35:59.850Z,1.40
2022-08-18T07:39:19.503Z,1.58
2022-08-18T07:43:00.476Z,1.50
2022-08-18T07:46:12.502Z,1.38
2022-08-18T07:49:22.487Z,1.40
2022-08-18T07:52:36.563Z,1.63
2022-08-18T07:55:52.541Z,1.50
2022-08-18T07:59:03.293Z,1.33
2022-08-18T08:02:42.905Z,1.15
2022-08-18T08:06:24.057Z,1.70
2022-08-18T08:09:52.032Z,1.38
2022-08-18T08:13:51.315Z,1.67
2022-08-18T08:16:53.420Z,1.70
2022-08-18T08:20:16.718Z,1.65
2022-08-18T08:23:27.666Z,1.40
2022-08-18T08:26:37.518Z,1.90
2022-08-18T08:30:07.521Z,1.60
2022-08-18T08:33:35.536Z,1.65
2022-08-18T08:36:45.154Z,1.60
2022-08-18T08:40:02.933Z,1.48
2022-08-18T08:43:11.182Z,1.60
2022-08-18T08:46:20.111Z,1.73
2022-08-18T08:49:57.481Z,1.50
2022-08-18T08:53:44.930Z,1.33
2022-08-18T08:56:51.880Z,1.52
2022-08-18T08:59:58.590Z,1.70
2022-08-18T09:03:30.437Z,1.55
2022-08-18T09:06:36.049Z,1.42
2022-08-18T09:09:45.217Z,1.40
2022-08-18T09:13:08.992Z,1.60
2022-08-18T09:16:29.756Z,1.13
2022-08-18T09:20:00.309Z,1.55
2022-08-18T09:23:18.291Z,1.60
2022-08-18T09:26:39.060Z,1.20
2022-08-18T09:29:58.901Z,1.10
2022-08-18T09:33:19.756Z,1.25
2022-08-18T09:36:49.737Z,1.17
2022-08-18T09:40:51.456Z,0.98
2022-08-18T09:44:21.607Z,0.77
2022-08-18T09:47:49.167Z,1.52
2022-08-18T09:50:55.414Z,1.00
2022-08-18T09:54:14.740Z,1.10
2022-08-18T09:57:42.638Z,0.95
2022-08-18T10:01:21.295Z,0.70
2022-08-18T10:04:29.781Z,0.93
2022-08-18T10:07:43.642Z,0.82
2022-08-18T10:11:09.113Z,1.00
2022-08-18T10:14:39.565Z,0.95
2022-08-18T10:18:25.518Z,0.77
2022-08-18T10:21:49.832Z,1.15
2022-08-18T10:25:19.800Z,1.10
2022-08-18T10:28:54.578Z,1.00
2022-08-18T10:31:57.745Z,1.13
2022-08-18T10:35:00.864Z,1.00
2022-08-18T10:38:05.218Z,0.90
2022-08-18T10:41:30.718Z,1.25
2022-08-18T10:44:42.221Z,1.15
2022-08-18T10:47:45.124Z,1.10
2022-08-18T10:50:59.037Z,1.08
2022-08-18T10:54:29.996Z,1.30
2022-08-18T10:57:47.181Z,1.02
2022-08-18T11:01:16.730Z,0.88
2022-08-18T11:04:43.679Z,0.93
2022-08-18T11:07:52.158Z,1.10
2022-08-18T11:11:33.704Z,0.98
2022-08-18T11:15:01.363Z,0.90
2022-08-18T11:22:04.437Z,1.10
2022-08-18T11:25:22.693Z,0.85
2022-08-18T11:28:30.703Z,0.80
2022-08-18T11:31:34.214Z,0.82
2022-08-18T11:34:52.827Z,1.10
2022-08-18T11:38:12.532Z,0.70
2022-08-18T11:41:23.469Z,0.77
2022-08-18T11:44:32.069Z,0.70
2022-08-18T11:47:37.480Z,0.80
2022-08-18T11:51:17.709Z,0.70
2022-08-18T11:54:38.479Z,0.70
2022-08-18T11:57:58.607Z,0.70
2022-08-18T12:01:03.309Z,1.00
2022-08-18T12:04:14.605Z,0.63
2022-08-18T12:07:26.835Z,0.73
2022-08-18T12:10:29.680Z,0.60
2022-08-18T12:13:32.600Z,0.68
2022-08-18T12:16:41.975Z,0.70
2022-08-18T12:19:49.291Z,0.60
2022-08-18T12:22:57.045Z,0.70
2022-08-18T12:26:00.594Z,0.52
2022-08-18T12:29:08.933Z,0.70
2022-08-18T12:32:17.768Z,0.60
2022-08-18T12:35:41.870Z,0.50
2022-08-18T12:38:52.274Z,0.60
2022-08-18T12:41:59.604Z,0.50
2022-08-18T12:45:01.853Z,0.68
2022-08-18T12:48:04.863Z,0.70
2022-08-18T12:51:09.231Z,0.70
2022-08-18T12:54:13.480Z,0.80
2022-08-18T12:57:51.725Z,0.77
2022-08-18T13:00:48.337Z,0.98
2022-08-18T13:04:12.926Z,1.10
2022-08-18T13:07:16.280Z,0.80
2022-08-18T13:10:35.649Z,1.02
2022-08-18T13:13:44.553Z,1.10
2022-08-18T13:16:54.720Z,1.00
2022-08-18T13:19:57.691Z,1.00
2022-08-18T13:22:59.972Z,1.20
2022-08-18T13:26:03.742Z,1.17
2022-08-18T13:29:06.373Z,0.80
2022-08-18T13:32:12.541Z,1.13
2022-08-18T13:35:15.280Z,0.93
2022-08-18T13:38:25.632Z,0.95
2022-08-18T13:41:30.683Z,0.88
2022-08-18T13:44:34.886Z,0.88
2022-08-18T13:47:38.232Z,0.90
2022-08-18T13:50:42.186Z,1.02
2022-08-18T13:53:59.317Z,0.93
2022-08-18T13:57:11.359Z,0.80
2022-08-18T14:00:20.265Z,1.00
2022-08-18T14:03:46.852Z,0.80
2022-08-18T14:06:57.317Z,1.08
2022-08-18T14:10:04.507Z,0.90
2022-08-18T14:13:20.231Z,1.02
2022-08-18T14:16:27.438Z,0.90
2022-08-18T14:19:56.236Z,0.90
2022-08-18T14:23:21.643Z,1.00
2022-08-18T14:26:43.149Z,1.23
2022-08-18T14:29:49.818Z,0.90
2022-08-18T14:32:53.926Z,1.00
2022-08-18T14:36:05.993Z,0.93
2022-08-18T14:39:14.099Z,0.80
2022-08-18T14:42:18.958Z,0.90
2022-08-18T14:45:27.809Z,0.70
2022-08-18T14:48:34.670Z,0.68
2022-08-18T14:51:37.656Z,0.73
2022-08-18T14:54:46.306Z,0.70
2022-08-18T14:57:53.564Z,0.82
2022-08-18T15:01:08.246Z,0.95
2022-08-18T15:04:19.442Z,0.90
2022-08-18T15:07:23.807Z,0.90
2022-08-18T15:10:28.005Z,0.80
2022-08-18T15:13:30.685Z,0.98
2022-08-18T15:16:38.694Z,0.80
2022-08-18T15:19:58.191Z,0.80
2022-08-18T15:26:32.605Z,1.17
2022-08-18T15:29:36.911Z,0.70
2022-08-18T15:32:46.126Z,1.20
2022-08-18T15:35:50.660Z,0.77
2022-08-18T15:38:54.679Z,0.70
2022-08-18T15:41:58.197Z,0.85
2022-08-18T15:45:12.135Z,0.70
2022-08-18T15:48:19.002Z,0.90
2022-08-18T15:51:23.315Z,0.98
2022-08-18T15:54:25.550Z,1.00
2022-08-18T15:57:39.428Z,0.93
2022-08-18T16:00:45.925Z,0.68
2022-08-18T16:03:50.188Z,0.93
2022-08-18T16:06:56.305Z,0.70
2022-08-18T16:09:58.532Z,0.80
2022-08-18T16:13:04.824Z,1.05
2022-08-18T16:16:11.334Z,0.90
2022-08-18T16:19:13.774Z,0.50
2022-08-18T16:22:15.956Z,0.70
2022-08-18T16:25:18.303Z,0.55
2022-08-18T16:28:20.558Z,0.85
2022-08-18T16:31:41.080Z,0.82
2022-08-18T16:34:43.493Z,0.90
2022-08-18T16:37:47.052Z,0.93
2022-08-18T16:40:51.318Z,0.60
2022-08-18T16:43:54.993Z,0.88
2022-08-18T16:46:57.684Z,0.75
2022-08-18T16:50:00.018Z,0.70
2022-08-18T16:53:02.389Z,0.85
2022-08-18T16:56:11.079Z,0.80
2022-08-18T17:03:12.343Z,0.77
2022-08-18T17:06:17.127Z,0.60
2022-08-18T17:09:20.216Z,0.93
2022-08-18T17:12:24.521Z,0.80
2022-08-18T17:15:28.853Z,0.68
2022-08-18T17:18:31.511Z,0.70
2022-08-18T17:21:35.053Z,0.77
2022-08-18T17:24:37.909Z,0.68
2022-08-18T17:27:48.173Z,0.90
2022-08-18T17:30:53.565Z,0.60
2022-08-18T17:34:03.055Z,0.50
2022-08-18T17:37:10.241Z,0.60
2022-08-18T17:40:21.254Z,0.60
2022-08-18T17:43:26.121Z,0.57
2022-08-18T17:46:40.039Z,0.90
2022-08-18T17:50:26.544Z,0.70
2022-08-18T17:53:26.297Z,0.70
2022-08-18T17:56:53.179Z,0.77
2022-08-18T18:00:21.885Z,0.70
2022-08-18T18:03:28.490Z,0.60
2022-08-18T18:06:42.405Z,0.80
2022-08-18T18:09:55.330Z,1.02
2022-08-18T18:13:09.014Z,0.80
2022-08-18T18:16:28.606Z,0.70
2022-08-18T18:19:33.115Z,0.60
2022-08-18T18:22:35.325Z,0.63
2022-08-18T18:25:38.380Z,0.80
2022-08-18T18:28:41.580Z,0.80
2022-08-18T18:32:07.277Z,1.15
2022-08-18T18:35:11.516Z,0.80
2022-08-18T18:38:38.162Z,0.85
2022-08-18T18:41:42.736Z,0.93
2022-08-18T18:45:20.690Z,0.70
2022-08-18T18:48:51.259Z,0.70
2022-08-18T18:52:14.169Z,1.10
2022-08-18T18:55:22.316Z,0.80
2022-08-18T18:59:14.251Z,1.10
2022-08-18T19:02:39.904Z,0.75
2022-08-18T19:06:07.322Z,0.98
2022-08-18T19:09:20.123Z,0.55
2022-08-18T19:12:27.845Z,1.00
2022-08-18T19:15:37.745Z,0.65
2022-08-18T19:19:36.003Z,0.80
2022-08-18T19:22:38.740Z,0.80
2022-08-18T19:25:51.271Z,0.85
2022-08-18T19:29:13.154Z,0.60
2022-08-18T19:32:32.696Z,0.80
2022-08-18T19:36:00.660Z,1.13
2022-08-18T19:42:43.149Z,0.70
2022-08-18T19:46:11.152Z,1.00
2022-08-18T19:49:39.858Z,0.85
2022-08-18T19:53:01.591Z,1.00
2022-08-18T19:56:13.935Z,1.30
2022-08-18T20:02:50.215Z,1.10
2022-08-18T20:06:33.340Z,0.93
2022-08-18T20:09:51.752Z,1.00
2022-08-18T20:13:22.780Z,0.80
2022-08-18T20:16:44.245Z,1.00
2022-08-18T20:20:02.520Z,1.20
2022-08-18T20:23:30.187Z,1.20
2022-08-18T20:26:39.041Z,1.30
2022-08-18T20:29:46.414Z,1.20
2022-08-18T20:33:13.518Z,0.75
2022-08-18T20:36:24.239Z,0.82
2022-08-18T20:42:34.644Z,1.02
2022-08-18T20:45:37.016Z,1.10
2022-08-18T20:49:32.309Z,1.20
2022-08-18T20:53:01.573Z,0.90
2022-08-18T21:00:15.296Z,1.10
2022-08-18T21:03:20.782Z,0.82
2022-08-18T21:06:31.352Z,1.35
2022-08-18T21:09:33.698Z,1.00
2022-08-18T21:12:36.388Z,1.00
2022-08-18T21:15:38.797Z,1.02
2022-08-18T21:19:13.860Z,1.20
2022-08-18T21:22:19.744Z,1.13
2022-08-18T21:25:24.257Z,1.00
2022-08-18T21:28:31.390Z,0.85
2022-08-18T21:31:43.748Z,1.10
2022-08-18T21:34:49.493Z,0.90
2022-08-18T21:38:12.613Z,0.98
2022-08-18T21:41:31.198Z,1.10
2022-08-18T21:44:45.699Z,1.20
2022-08-18T21:47:56.978Z,1.20
2022-08-18T21:51:01.392Z,1.10
2022-08-18T21:54:03.932Z,0.93
2022-08-18T21:57:21.866Z,1.10
2022-08-18T22:00:38.984Z,1.00
2022-08-18T22:03:59.888Z,0.88
2022-08-18T22:07:34.470Z,1.15
2022-08-18T22:10:58.661Z,0.82
2022-08-18T22:14:29.556Z,1.00
2022-08-18T22:17:52.446Z,1.00
2022-08-18T22:20:57.364Z,1.25
2022-08-18T22:24:18.210Z,1.00
2022-08-18T22:27:22.706Z,1.20
2022-08-18T22:30:24.985Z,0.90
2022-08-18T22:33:27.593Z,1.00
2022-08-18T22:36:35.716Z,1.13
2022-08-18T22:39:51.578Z,1.20
2022-08-18T22:42:54.230Z,1.15
2022-08-18T22:45:56.500Z,1.00
2022-08-18T22:48:58.760Z,1.10
2022-08-18T22:52:01.040Z,1.20
2022-08-18T22:55:08.108Z,1.50
2022-08-18T22:58:10.541Z,1.20
2022-08-18T23:01:14.297Z,1.20
2022-08-18T23:04:19.364Z,1.10
2022-08-18T23:07:23.078Z,1.10
2022-08-18T23:10:25.431Z,1.10
2022-08-18T23:13:28.647Z,1.00
2022-08-18T23:16:33.729Z,0.93
2022-08-18T23:19:35.989Z,0.90
2022-08-18T23:22:41.000Z,1.25
2022-08-18T23:25:43.657Z,1.50
2022-08-18T23:28:48.470Z,0.93
2022-08-18T23:31:54.796Z,1.02
2022-08-18T23:34:57.289Z,0.80
2022-08-18T23:37:59.513Z,1.00
2022-08-18T23:41:01.726Z,0.80
2022-08-18T23:44:06.660Z,1.00
2022-08-18T23:47:09.248Z,0.98
2022-08-18T23:50:11.968Z,0.90
2022-08-18T23:53:15.421Z,0.90
2022-08-18T23:56:17.793Z,1.00
2022-08-18T23:59:24.142Z,0.70
